createdAt,value
2023-04-18T00:06:35.304Z,24.77
2023-04-18T00:16:38.573Z,24.75
2023-04-18T00:26:41.759Z,24.75
2023-04-18T00:47:36.858Z,24.73
2023-04-18T00:57:40.033Z,24.73
2023-04-18T01:07:43.221Z,24.73
2023-04-18T01:17:46.397Z,24.73
2023-04-18T01:27:49.584Z,24.71
2023-04-18T01:37:52.739Z,24.69
2023-04-18T01:47:55.984Z,24.71
2023-04-18T01:57:59.160Z,24.69
2023-04-18T02:08:02.362Z,24.68
2023-04-18T02:18:05.592Z,24.71
2023-04-18T02:28:08.891Z,24.69
2023-04-18T02:38:12.042Z,24.69
2023-04-18T02:48:15.326Z,24.68
2023-04-18T02:58:18.588Z,24.69
2023-04-18T03:08:21.768Z,24.68
2023-04-18T03:18:24.993Z,24.68
2023-04-18T03:28:28.206Z,24.68
2023-04-18T03:38:31.359Z,24.67
2023-04-18T03:48:34.560Z,24.68
2023-04-18T03:58:37.707Z,24.68
2023-04-18T04:08:41.023Z,24.68
2023-04-18T04:18:44.181Z,24.67
2023-04-18T04:28:47.375Z,24.68
2023-04-18T04:38:50.534Z,24.71
2023-04-18T04:48:53.733Z,24.73
2023-04-18T04:58:56.870Z,24.75
2023-04-18T05:09:00.061Z,24.75
2023-04-18T05:19:03.218Z,24.77
2023-04-18T05:29:06.400Z,24.76
2023-04-18T05:39:09.553Z,24.77
2023-04-18T05:49:12.736Z,24.79
2023-04-18T05:59:15.872Z,24.77
2023-04-18T06:09:19.064Z,24.77
2023-04-18T06:19:22.215Z,24.76
2023-04-18T06:29:25.417Z,24.73
2023-04-18T06:39:28.563Z,24.73
2023-04-18T06:49:31.761Z,24.76
2023-04-18T06:59:34.912Z,24.75
2023-04-18T07:09:38.121Z,24.75
2023-04-18T07:19:41.285Z,24.76
2023-04-18T07:29:44.567Z,24.75
2023-04-18T07:39:47.737Z,24.73
2023-04-18T07:49:51.009Z,24.73
2023-04-18T07:59:54.166Z,24.73
2023-04-18T08:09:57.616Z,24.73
2023-04-18T08:20:00.780Z,24.71
2023-04-18T08:30:03.977Z,24.71
2023-04-18T08:40:07.151Z,24.71
2023-04-18T08:50:10.714Z,24.73
2023-04-18T09:00:13.936Z,24.75
2023-04-18T09:10:17.130Z,24.71
2023-04-18T09:20:20.283Z,24.71
2023-04-18T09:30:23.490Z,24.73
2023-04-18T09:40:26.672Z,24.73
2023-04-18T09:50:29.947Z,24.76
2023-04-18T10:00:33.136Z,24.77
2023-04-18T10:10:38.581Z,24.77
2023-04-18T10:20:39.621Z,24.79
2023-04-18T10:30:42.821Z,24.79
2023-04-18T10:40:45.992Z,24.76
2023-04-18T10:50:49.203Z,24.75
2023-04-18T11:00:52.379Z,24.71
2023-04-18T11:10:55.559Z,24.71
2023-04-18T11:20:58.821Z,24.71
2023-04-18T11:31:02.105Z,24.69
2023-04-18T11:41:05.274Z,24.69
2023-04-18T11:51:08.468Z,24.71
2023-04-18T12:01:11.643Z,24.73
2023-04-18T12:11:14.882Z,24.69
2023-04-18T12:21:18.025Z,24.71
2023-04-18T12:31:21.524Z,24.71
2023-04-18T12:41:24.761Z,24.69
2023-04-18T12:51:27.972Z,24.71
2023-04-18T13:01:31.187Z,24.69
2023-04-18T13:11:34.403Z,24.69
2023-04-18T13:21:37.559Z,24.69
2023-04-18T13:31:40.785Z,24.68
2023-04-18T13:41:43.935Z,24.68
2023-04-18T13:51:47.193Z,24.68
2023-04-18T14:01:50.443Z,24.64
2023-04-18T14:11:53.682Z,24.67
2023-04-18T14:21:56.843Z,24.67
2023-04-18T14:32:00.035Z,24.68
2023-04-18T14:42:03.186Z,24.67
2023-04-18T14:52:06.417Z,24.67
2023-04-18T15:02:09.641Z,24.68
2023-04-18T15:12:12.907Z,24.67
2023-04-18T15:22:16.159Z,24.67
2023-04-18T15:32:19.388Z,24.68
2023-04-18T15:42:22.582Z,24.67
2023-04-18T15:52:25.793Z,24.68
2023-04-18T16:02:28.995Z,24.68
2023-04-18T16:12:32.233Z,24.67
2023-04-18T16:22:35.420Z,24.68
2023-04-18T16:32:38.630Z,24.68
2023-04-18T16:42:41.821Z,24.68
2023-04-18T16:52:45.042Z,24.68
2023-04-18T17:02:48.410Z,24.67
2023-04-18T17:12:51.868Z,24.67
2023-04-18T17:22:55.074Z,24.67
2023-04-18T17:43:50.567Z,24.64
2023-04-18T17:53:53.768Z,24.67
2023-04-18T18:03:57.055Z,24.63
2023-04-18T18:14:00.236Z,24.64
2023-04-18T18:24:03.434Z,24.63
2023-04-18T18:34:06.623Z,24.63
2023-04-18T18:44:09.842Z,24.60
2023-04-18T18:54:13.081Z,24.61
2023-04-18T19:04:16.365Z,24.61
2023-04-18T19:14:19.718Z,24.60
2023-04-18T19:24:22.918Z,24.60
2023-04-18T19:34:26.066Z,24.60
2023-04-18T19:44:29.275Z,24.59
2023-04-18T19:54:32.439Z,24.59
2023-04-18T20:04:35.864Z,24.60
2023-04-18T20:14:39.083Z,24.57
2023-04-18T20:24:42.274Z,24.59
2023-04-18T20:34:45.428Z,24.56
2023-04-18T20:44:48.639Z,24.56
2023-04-18T20:54:51.803Z,24.57
2023-04-18T21:15:47.856Z,24.54
2023-04-18T21:25:51.051Z,24.54
2023-04-18T21:35:54.253Z,24.56
2023-04-18T21:45:57.448Z,24.54
2023-04-18T21:56:00.632Z,24.53
2023-04-18T22:06:03.813Z,24.53
2023-04-18T22:16:07.053Z,24.54
2023-04-18T22:26:10.243Z,24.53
2023-04-18T22:36:13.477Z,24.53
2023-04-18T22:46:16.685Z,24.52
2023-04-18T22:56:19.925Z,24.54
2023-04-18T23:06:23.087Z,24.52
2023-04-18T23:16:26.333Z,24.53
2023-04-18T23:26:29.561Z,24.50
2023-04-18T23:36:32.764Z,24.52
2023-04-18T23:46:36.763Z,24.49
2023-04-18T23:56:40.170Z,24.49
